sensor_id;sensor_type;location;lat;lon;timestamp;pressure;altitude;pressure_sealevel;temperature;humidity
64352;BME280;50680;52.626;-8.668;2023-06-14T10:51:00;101633.19;;;33.09;73.67
64352;BME280;50680;52.626;-8.668;2023-06-14T10:53:28;101632.03;;;32.98;65.77
64352;BME280;50680;52.626;-8.668;2023-06-14T10:55:56;101632.06;;;32.40;66.31
64352;BME280;50680;52.626;-8.668;2023-06-14T10:58:23;101633.59;;;32.16;69.56
64352;BME280;50680;52.626;-8.668;2023-06-14T11:00:50;101625.66;;;32.08;71.34
64352;BME280;50680;52.626;-8.668;2023-06-14T11:03:36;101626.19;;;32.50;72.22
64352;BME280;50680;52.626;-8.668;2023-06-14T11:06:15;101624.53;;;32.42;76.05
64352;BME280;50680;52.626;-8.668;2023-06-14T11:08:56;101624.41;;;32.10;76.87
64352;BME280;50680;52.626;-8.668;2023-06-14T11:11:35;101619.50;;;32.46;75.29
64352;BME280;50680;52.626;-8.668;2023-06-14T11:14:03;101620.28;;;32.53;75.88
64352;BME280;50680;52.626;-8.668;2023-06-14T11:16:31;101622.59;;;32.49;73.97
64352;BME280;50680;52.626;-8.668;2023-06-14T11:19:03;101623.19;;;32.65;75.53
64352;BME280;50680;52.626;-8.668;2023-06-14T11:21:32;101626.72;;;32.72;74.87
64352;BME280;50680;52.626;-8.668;2023-06-14T11:24:00;101623.69;;;32.48;72.76
64352;BME280;50680;52.626;-8.668;2023-06-14T11:26:28;101615.81;;;32.27;76.07
64352;BME280;50680;52.626;-8.668;2023-06-14T11:28:59;101614.94;;;32.39;79.38
64352;BME280;50680;52.626;-8.668;2023-06-14T11:31:27;101624.47;;;32.69;80.97
64352;BME280;50680;52.626;-8.668;2023-06-14T11:33:59;101618.50;;;32.85;76.35
64352;BME280;50680;52.626;-8.668;2023-06-14T11:36:30;101612.38;;;32.96;74.65
64352;BME280;50680;52.626;-8.668;2023-06-14T11:38:59;101608.81;;;32.96;75.29
64352;BME280;50680;52.626;-8.668;2023-06-14T11:41:45;101620.78;;;32.88;77.76
64352;BME280;50680;52.626;-8.668;2023-06-14T11:44:13;101614.56;;;33.13;76.63
64352;BME280;50680;52.626;-8.668;2023-06-14T11:46:40;101613.22;;;33.29;73.26
64352;BME280;50680;52.626;-8.668;2023-06-14T11:49:07;101614.16;;;33.66;70.03
64352;BME280;50680;52.626;-8.668;2023-06-14T11:51:36;101605.19;;;33.09;64.73
64352;BME280;50680;52.626;-8.668;2023-06-14T11:54:05;101600.38;;;33.11;62.94
64352;BME280;50680;52.626;-8.668;2023-06-14T11:56:32;101598.09;;;32.76;65.15
64352;BME280;50680;52.626;-8.668;2023-06-14T11:59:01;101599.75;;;33.09;70.34
64352;BME280;50680;52.626;-8.668;2023-06-14T12:01:30;101596.25;;;33.33;68.45
64352;BME280;50680;52.626;-8.668;2023-06-14T12:03:59;101599.63;;;33.54;70.31
64352;BME280;50680;52.626;-8.668;2023-06-14T12:06:30;101599.78;;;33.84;72.61
64352;BME280;50680;52.626;-8.668;2023-06-14T12:09:03;101593.31;;;34.22;69.28
64352;BME280;50680;52.626;-8.668;2023-06-14T12:11:35;101595.72;;;34.12;65.99
64352;BME280;50680;52.626;-8.668;2023-06-14T12:14:06;101602.88;;;33.69;68.18
64352;BME280;50680;52.626;-8.668;2023-06-14T12:16:38;101599.63;;;33.54;69.13
64352;BME280;50680;52.626;-8.668;2023-06-14T12:19:16;101603.47;;;33.46;71.79
64352;BME280;50680;52.626;-8.668;2023-06-14T12:21:46;101610.13;;;33.50;69.51
64352;BME280;50680;52.626;-8.668;2023-06-14T12:24:15;101597.56;;;33.49;69.01
64352;BME280;50680;52.626;-8.668;2023-06-14T12:26:43;101605.91;;;33.54;67.51
64352;BME280;50680;52.626;-8.668;2023-06-14T12:29:10;101602.84;;;33.19;67.71
64352;BME280;50680;52.626;-8.668;2023-06-14T12:31:39;101595.38;;;32.76;71.41
64352;BME280;50680;52.626;-8.668;2023-06-14T12:34:07;101597.59;;;32.86;74.22
64352;BME280;50680;52.626;-8.668;2023-06-14T12:36:34;101595.72;;;32.86;79.16
64352;BME280;50680;52.626;-8.668;2023-06-14T12:39:06;101603.16;;;32.97;79.77
64352;BME280;50680;52.626;-8.668;2023-06-14T12:41:34;101592.91;;;32.99;78.74
64352;BME280;50680;52.626;-8.668;2023-06-14T12:44:03;101590.63;;;32.51;76.25
64352;BME280;50680;52.626;-8.668;2023-06-14T12:46:33;101592.06;;;32.09;80.11
64352;BME280;50680;52.626;-8.668;2023-06-14T12:49:01;101583.22;;;32.33;82.24
64352;BME280;50680;52.626;-8.668;2023-06-14T12:51:29;101583.00;;;32.35;83.31
64352;BME280;50680;52.626;-8.668;2023-06-14T12:53:56;101594.06;;;32.40;81.82
64352;BME280;50680;52.626;-8.668;2023-06-14T12:56:23;101586.34;;;32.37;86.11
64352;BME280;50680;52.626;-8.668;2023-06-14T12:58:50;101585.53;;;32.75;88.88
64352;BME280;50680;52.626;-8.668;2023-06-14T13:01:17;101588.16;;;33.27;84.79
64352;BME280;50680;52.626;-8.668;2023-06-14T13:03:46;101577.28;;;33.52;81.81
64352;BME280;50680;52.626;-8.668;2023-06-14T13:06:13;101580.44;;;33.49;81.75
64352;BME280;50680;52.626;-8.668;2023-06-14T13:08:40;101566.00;;;33.73;83.82
64352;BME280;50680;52.626;-8.668;2023-06-14T13:11:07;101569.19;;;33.89;82.19
64352;BME280;50680;52.626;-8.668;2023-06-14T13:13:34;101570.50;;;34.23;82.45
64352;BME280;50680;52.626;-8.668;2023-06-14T13:16:02;101571.06;;;34.44;79.19
64352;BME280;50680;52.626;-8.668;2023-06-14T13:18:29;101571.00;;;34.51;80.08
64352;BME280;50680;52.626;-8.668;2023-06-14T13:20:56;101583.06;;;34.55;77.53
64352;BME280;50680;52.626;-8.668;2023-06-14T13:23:22;101577.22;;;34.70;76.64
64352;BME280;50680;52.626;-8.668;2023-06-14T13:25:49;101571.78;;;34.70;70.68
64352;BME280;50680;52.626;-8.668;2023-06-14T13:28:17;101571.59;;;34.34;69.87
64352;BME280;50680;52.626;-8.668;2023-06-14T13:30:44;101571.28;;;34.05;69.61
64352;BME280;50680;52.626;-8.668;2023-06-14T13:33:11;101566.31;;;33.59;69.55
64352;BME280;50680;52.626;-8.668;2023-06-14T13:35:38;101578.63;;;33.17;71.98
64352;BME280;50680;52.626;-8.668;2023-06-14T13:38:05;101579.66;;;33.10;74.26
64352;BME280;50680;52.626;-8.668;2023-06-14T13:40:32;101574.06;;;33.05;72.59
64352;BME280;50680;52.626;-8.668;2023-06-14T13:42:59;101567.38;;;33.07;74.46
64352;BME280;50680;52.626;-8.668;2023-06-14T13:45:26;101569.50;;;33.30;73.61
64352;BME280;50680;52.626;-8.668;2023-06-14T13:47:53;101572.66;;;33.27;73.23
64352;BME280;50680;52.626;-8.668;2023-06-14T13:50:21;101570.69;;;33.16;73.45
64352;BME280;50680;52.626;-8.668;2023-06-14T13:52:48;101566.28;;;32.83;78.41
64352;BME280;50680;52.626;-8.668;2023-06-14T13:55:15;101570.22;;;32.87;81.53
64352;BME280;50680;52.626;-8.668;2023-06-14T13:57:41;101565.56;;;32.94;82.13
64352;BME280;50680;52.626;-8.668;2023-06-14T14:00:09;101565.03;;;33.11;77.53
64352;BME280;50680;52.626;-8.668;2023-06-14T14:02:36;101556.50;;;33.07;80.84
64352;BME280;50680;52.626;-8.668;2023-06-14T14:05:03;101559.41;;;33.38;86.66
64352;BME280;50680;52.626;-8.668;2023-06-14T14:07:30;101562.88;;;33.45;92.73
64352;BME280;50680;52.626;-8.668;2023-06-14T14:09:57;101552.66;;;33.47;92.07
64352;BME280;50680;52.626;-8.668;2023-06-14T14:12:24;101556.06;;;33.61;90.21
64352;BME280;50680;52.626;-8.668;2023-06-14T14:14:51;101556.56;;;33.76;90.92
64352;BME280;50680;52.626;-8.668;2023-06-14T14:17:18;101555.97;;;34.11;88.69
64352;BME280;50680;52.626;-8.668;2023-06-14T14:19:45;101549.66;;;34.47;91.58
64352;BME280;50680;52.626;-8.668;2023-06-14T14:22:12;101554.31;;;34.59;91.58
64352;BME280;50680;52.626;-8.668;2023-06-14T14:24:39;101553.81;;;34.80;89.42
64352;BME280;50680;52.626;-8.668;2023-06-14T14:27:06;101556.56;;;34.62;87.09
64352;BME280;50680;52.626;-8.668;2023-06-14T14:29:34;101550.63;;;34.83;83.51
64352;BME280;50680;52.626;-8.668;2023-06-14T14:32:02;101541.34;;;34.42;82.51
64352;BME280;50680;52.626;-8.668;2023-06-14T14:34:29;101540.66;;;34.47;85.84
64352;BME280;50680;52.626;-8.668;2023-06-14T14:36:56;101546.28;;;34.15;88.26
64352;BME280;50680;52.626;-8.668;2023-06-14T14:39:23;101551.88;;;34.20;89.75
64352;BME280;50680;52.626;-8.668;2023-06-14T14:41:50;101542.75;;;33.52;88.22
64352;BME280;50680;52.626;-8.668;2023-06-14T14:44:17;101541.72;;;33.53;92.51
64352;BME280;50680;52.626;-8.668;2023-06-14T14:46:45;101536.38;;;33.15;97.09
64352;BME280;50680;52.626;-8.668;2023-06-14T14:49:11;101534.69;;;32.89;98.49
64352;BME280;50680;52.626;-8.668;2023-06-14T14:51:38;101531.22;;;32.75;100.00
64352;BME280;50680;52.626;-8.668;2023-06-14T14:54:06;101536.78;;;32.55;100.00
64352;BME280;50680;52.626;-8.668;2023-06-14T14:56:33;101529.97;;;31.67;100.00
64352;BME280;50680;52.626;-8.668;2023-06-14T14:59:01;101536.66;;;31.58;100.00
64352;BME280;50680;52.626;-8.668;2023-06-14T15:01:29;101529.34;;;31.31;100.00
64352;BME280;50680;52.626;-8.668;2023-06-14T15:03:56;101534.97;;;30.28;100.00
64352;BME280;50680;52.626;-8.668;2023-06-14T15:06:26;101534.66;;;30.10;100.00
64352;BME280;50680;52.626;-8.668;2023-06-14T15:08:53;101541.28;;;30.00;100.00
64352;BME280;50680;52.626;-8.668;2023-06-14T15:11:20;101543.31;;;29.92;100.00
64352;BME280;50680;52.626;-8.668;2023-06-14T15:13:47;101540.72;;;29.77;100.00
64352;BME280;50680;52.626;-8.668;2023-06-14T15:16:15;101545.75;;;29.80;100.00
64352;BME280;50680;52.626;-8.668;2023-06-14T15:18:42;101541.91;;;29.74;100.00
64352;BME280;50680;52.626;-8.668;2023-06-14T15:21:09;101548.63;;;29.78;100.00
64352;BME280;50680;52.626;-8.668;2023-06-14T15:23:36;101545.94;;;29.78;100.00
64352;BME280;50680;52.626;-8.668;2023-06-14T15:26:03;101543.66;;;29.82;100.00
64352;BME280;50680;52.626;-8.668;2023-06-14T15:28:29;101544.94;;;29.86;100.00
64352;BME280;50680;52.626;-8.668;2023-06-14T15:31:32;101544.56;;;29.96;100.00
64352;BME280;50680;52.626;-8.668;2023-06-14T15:35:29;101544.97;;;30.34;100.00
64352;BME280;50680;52.626;-8.668;2023-06-14T15:39:23;101546.63;;;30.90;100.00
64352;BME280;50680;52.626;-8.668;2023-06-14T15:42:27;101550.19;;;31.18;100.00
64352;BME280;50680;52.626;-8.668;2023-06-14T15:45:40;101546.44;;;31.45;100.00
64352;BME280;50680;52.626;-8.668;2023-06-14T15:49:00;101539.97;;;31.46;100.00
64352;BME280;50680;52.626;-8.668;2023-06-14T15:52:14;101542.72;;;31.60;100.00
64352;BME280;50680;52.626;-8.668;2023-06-14T15:54:55;101544.16;;;31.29;100.00
64352;BME280;50680;52.626;-8.668;2023-06-14T15:58:06;101555.31;;;30.79;100.00
64352;BME280;50680;52.626;-8.668;2023-06-14T16:01:41;101552.38;;;30.67;100.00
64352;BME280;50680;52.626;-8.668;2023-06-14T16:04:08;101555.16;;;30.32;100.00
64352;BME280;50680;52.626;-8.668;2023-06-14T16:06:35;101559.06;;;29.88;100.00
64352;BME280;50680;52.626;-8.668;2023-06-14T16:09:03;101569.19;;;29.51;100.00
64352;BME280;50680;52.626;-8.668;2023-06-14T16:11:30;101567.69;;;29.20;100.00
64352;BME280;50680;52.626;-8.668;2023-06-14T16:13:56;101594.06;;;29.03;100.00
64352;BME280;50680;52.626;-8.668;2023-06-14T16:16:23;101585.28;;;28.43;100.00
64352;BME280;50680;52.626;-8.668;2023-06-14T16:18:50;101574.94;;;27.87;100.00
64352;BME280;50680;52.626;-8.668;2023-06-14T16:21:17;101578.22;;;27.45;100.00
64352;BME280;50680;52.626;-8.668;2023-06-14T16:23:44;101580.06;;;27.21;100.00
64352;BME280;50680;52.626;-8.668;2023-06-14T16:26:12;101565.75;;;26.97;100.00
64352;BME280;50680;52.626;-8.668;2023-06-14T16:28:39;101559.88;;;26.71;100.00
64352;BME280;50680;52.626;-8.668;2023-06-14T16:31:09;101551.97;;;26.30;100.00
64352;BME280;50680;52.626;-8.668;2023-06-14T16:33:36;101556.06;;;26.09;100.00
64352;BME280;50680;52.626;-8.668;2023-06-14T16:36:03;101564.50;;;26.06;100.00
64352;BME280;50680;52.626;-8.668;2023-06-14T16:38:30;101543.66;;;26.08;100.00
64352;BME280;50680;52.626;-8.668;2023-06-14T16:40:58;101555.53;;;26.30;100.00
64352;BME280;50680;52.626;-8.668;2023-06-14T16:43:25;101546.09;;;26.26;100.00
64352;BME280;50680;52.626;-8.668;2023-06-14T16:45:52;101555.59;;;26.45;100.00
64352;BME280;50680;52.626;-8.668;2023-06-14T16:48:19;101554.75;;;26.53;100.00
64352;BME280;50680;52.626;-8.668;2023-06-14T16:50:46;101560.00;;;26.38;100.00
64352;BME280;50680;52.626;-8.668;2023-06-14T16:53:14;101561.75;;;26.22;100.00
64352;BME280;50680;52.626;-8.668;2023-06-14T16:55:40;101559.06;;;26.22;100.00
64352;BME280;50680;52.626;-8.668;2023-06-14T16:58:08;101541.00;;;26.39;100.00
64352;BME280;50680;52.626;-8.668;2023-06-14T17:00:34;101545.41;;;26.32;100.00
64352;BME280;50680;52.626;-8.668;2023-06-14T17:03:01;101541.84;;;26.40;100.00
64352;BME280;50680;52.626;-8.668;2023-06-14T17:05:29;101546.53;;;26.46;100.00
64352;BME280;50680;52.626;-8.668;2023-06-14T17:07:56;101540.50;;;26.44;100.00
64352;BME280;50680;52.626;-8.668;2023-06-14T17:10:23;101541.94;;;26.63;100.00
64352;BME280;50680;52.626;-8.668;2023-06-14T17:12:50;101556.66;;;26.75;100.00
64352;BME280;50680;52.626;-8.668;2023-06-14T17:15:16;101580.59;;;26.93;100.00
64352;BME280;50680;52.626;-8.668;2023-06-14T17:17:43;101607.16;;;26.96;100.00
64352;BME280;50680;52.626;-8.668;2023-06-14T17:20:10;101579.41;;;26.64;100.00
64352;BME280;50680;52.626;-8.668;2023-06-14T17:22:38;101558.97;;;25.91;100.00
64352;BME280;50680;52.626;-8.668;2023-06-14T17:25:07;101571.75;;;25.23;100.00
64352;BME280;50680;52.626;-8.668;2023-06-14T17:27:34;101589.03;;;24.62;100.00
64352;BME280;50680;52.626;-8.668;2023-06-14T17:30:01;101584.75;;;24.08;100.00
64352;BME280;50680;52.626;-8.668;2023-06-14T17:32:28;101581.78;;;23.67;100.00
64352;BME280;50680;52.626;-8.668;2023-06-14T17:34:55;101563.94;;;23.32;100.00
64352;BME280;50680;52.626;-8.668;2023-06-14T17:37:22;101561.06;;;22.97;100.00
64352;BME280;50680;52.626;-8.668;2023-06-14T17:39:49;101575.72;;;22.47;100.00
64352;BME280;50680;52.626;-8.668;2023-06-14T17:42:15;101596.94;;;22.11;100.00
64352;BME280;50680;52.626;-8.668;2023-06-14T17:44:42;101611.59;;;21.78;100.00
64352;BME280;50680;52.626;-8.668;2023-06-14T17:47:10;101598.44;;;21.57;100.00
64352;BME280;50680;52.626;-8.668;2023-06-14T17:49:53;101609.06;;;21.37;100.00
64352;BME280;50680;52.626;-8.668;2023-06-14T17:52:21;101635.16;;;21.24;100.00
64352;BME280;50680;52.626;-8.668;2023-06-14T17:54:48;101671.38;;;21.17;100.00
64352;BME280;50680;52.626;-8.668;2023-06-14T17:57:15;101692.38;;;21.00;100.00
64352;BME280;50680;52.626;-8.668;2023-06-14T17:59:42;101667.56;;;20.69;100.00
64352;BME280;50680;52.626;-8.668;2023-06-14T18:02:09;101668.03;;;20.53;100.00
64352;BME280;50680;52.626;-8.668;2023-06-14T18:04:36;101655.47;;;20.34;100.00
64352;BME280;50680;52.626;-8.668;2023-06-14T18:07:03;101648.47;;;20.12;100.00
64352;BME280;50680;52.626;-8.668;2023-06-14T18:12:16;101640.44;;;19.81;100.00
64352;BME280;50680;52.626;-8.668;2023-06-14T18:14:43;101626.78;;;19.75;100.00
64352;BME280;50680;52.626;-8.668;2023-06-14T18:17:09;101627.84;;;19.72;100.00
64352;BME280;50680;52.626;-8.668;2023-06-14T18:19:36;101619.66;;;19.64;100.00
64352;BME280;50680;52.626;-8.668;2023-06-14T18:22:04;101611.47;;;19.56;100.00
64352;BME280;50680;52.626;-8.668;2023-06-14T18:24:32;101608.03;;;19.44;100.00
64352;BME280;50680;52.626;-8.668;2023-06-14T18:26:59;101611.16;;;19.70;100.00
64352;BME280;50680;52.626;-8.668;2023-06-14T18:29:27;101620.09;;;19.69;100.00
64352;BME280;50680;52.626;-8.668;2023-06-14T18:31:54;101632.94;;;19.64;100.00
64352;BME280;50680;52.626;-8.668;2023-06-14T18:34:23;101640.06;;;19.42;100.00
64352;BME280;50680;52.626;-8.668;2023-06-14T18:36:50;101644.78;;;19.39;100.00
64352;BME280;50680;52.626;-8.668;2023-06-14T18:39:20;101674.88;;;19.50;100.00
64352;BME280;50680;52.626;-8.668;2023-06-14T18:41:47;101686.94;;;19.54;100.00
64352;BME280;50680;52.626;-8.668;2023-06-14T18:44:13;101708.22;;;19.54;100.00
64352;BME280;50680;52.626;-8.668;2023-06-14T18:46:40;101717.78;;;19.57;100.00
64352;BME280;50680;52.626;-8.668;2023-06-14T18:49:09;101721.97;;;19.60;100.00
64352;BME280;50680;52.626;-8.668;2023-06-14T18:51:36;101721.97;;;19.60;100.00
64352;BME280;50680;52.626;-8.668;2023-06-14T18:54:05;101718.13;;;19.52;100.00
64352;BME280;50680;52.626;-8.668;2023-06-14T18:56:33;101705.31;;;19.46;100.00
64352;BME280;50680;52.626;-8.668;2023-06-14T18:59:01;101716.31;;;19.53;100.00
64352;BME280;50680;52.626;-8.668;2023-06-14T19:01:29;101727.19;;;19.50;100.00
64352;BME280;50680;52.626;-8.668;2023-06-14T19:03:57;101735.34;;;19.48;100.00
64352;BME280;50680;52.626;-8.668;2023-06-14T19:06:24;101720.84;;;19.30;100.00
64352;BME280;50680;52.626;-8.668;2023-06-14T19:08:52;101749.53;;;19.59;100.00
64352;BME280;50680;52.626;-8.668;2023-06-14T19:11:19;101749.34;;;19.39;100.00
64352;BME280;50680;52.626;-8.668;2023-06-14T19:13:46;101743.19;;;19.27;100.00
64352;BME280;50680;52.626;-8.668;2023-06-14T19:16:14;101743.56;;;19.11;100.00
64352;BME280;50680;52.626;-8.668;2023-06-14T19:18:41;101726.66;;;19.01;100.00
64352;BME280;50680;52.626;-8.668;2023-06-14T19:21:08;101740.06;;;19.00;100.00
64352;BME280;50680;52.626;-8.668;2023-06-14T19:23:35;101727.53;;;18.90;100.00
64352;BME280;50680;52.626;-8.668;2023-06-14T19:26:04;101750.09;;;18.96;100.00
64352;BME280;50680;52.626;-8.668;2023-06-14T19:28:31;101735.13;;;18.84;100.00
64352;BME280;50680;52.626;-8.668;2023-06-14T19:30:58;101723.00;;;18.68;100.00
64352;BME280;50680;52.626;-8.668;2023-06-14T19:33:25;101730.28;;;18.77;100.00
64352;BME280;50680;52.626;-8.668;2023-06-14T19:35:52;101739.66;;;18.70;100.00
64352;BME280;50680;52.626;-8.668;2023-06-14T19:38:19;101732.16;;;18.53;100.00
64352;BME280;50680;52.626;-8.668;2023-06-14T19:40:46;101740.50;;;18.48;100.00
64352;BME280;50680;52.626;-8.668;2023-06-14T19:43:12;101746.03;;;18.45;100.00
64352;BME280;50680;52.626;-8.668;2023-06-14T19:45:39;101738.03;;;18.34;100.00
64352;BME280;50680;52.626;-8.668;2023-06-14T19:48:06;101744.19;;;18.34;100.00
64352;BME280;50680;52.626;-8.668;2023-06-14T19:50:46;101749.00;;;18.29;100.00
64352;BME280;50680;52.626;-8.668;2023-06-14T19:53:13;101755.88;;;18.20;100.00
64352;BME280;50680;52.626;-8.668;2023-06-14T19:55:40;101756.19;;;18.16;100.00
64352;BME280;50680;52.626;-8.668;2023-06-14T19:58:07;101756.66;;;18.10;100.00
64352;BME280;50680;52.626;-8.668;2023-06-14T20:00:34;101742.13;;;17.91;100.00
64352;BME280;50680;52.626;-8.668;2023-06-14T20:03:01;101774.97;;;18.01;100.00
64352;BME280;50680;52.626;-8.668;2023-06-14T20:05:28;101777.34;;;17.93;100.00
64352;BME280;50680;52.626;-8.668;2023-06-14T20:07:57;101773.69;;;17.94;100.00
64352;BME280;50680;52.626;-8.668;2023-06-14T20:10:24;101784.56;;;17.91;100.00
64352;BME280;50680;52.626;-8.668;2023-06-14T20:12:51;101779.88;;;17.82;100.00
64352;BME280;50680;52.626;-8.668;2023-06-14T20:15:18;101783.50;;;17.81;100.00
64352;BME280;50680;52.626;-8.668;2023-06-14T20:17:45;101788.81;;;17.81;100.00
64352;BME280;50680;52.626;-8.668;2023-06-14T20:20:12;101800.16;;;17.83;100.00
64352;BME280;50680;52.626;-8.668;2023-06-14T20:22:39;101801.09;;;17.82;100.00
64352;BME280;50680;52.626;-8.668;2023-06-14T20:25:08;101793.69;;;17.87;100.00
64352;BME280;50680;52.626;-8.668;2023-06-14T20:27:36;101802.78;;;17.96;100.00
64352;BME280;50680;52.626;-8.668;2023-06-14T20:30:04;101811.09;;;17.91;100.00
64352;BME280;50680;52.626;-8.668;2023-06-14T20:32:31;101803.47;;;17.87;100.00
64352;BME280;50680;52.626;-8.668;2023-06-14T20:34:59;101816.91;;;17.96;100.00
64352;BME280;50680;52.626;-8.668;2023-06-14T20:37:26;101801.00;;;17.96;100.00
64352;BME280;50680;52.626;-8.668;2023-06-14T20:39:54;101818.38;;;18.00;100.00
64352;BME280;50680;52.626;-8.668;2023-06-14T20:42:29;101817.44;;;18.01;100.00
64352;BME280;50680;52.626;-8.668;2023-06-14T20:44:57;101816.31;;;17.93;100.00
64352;BME280;50680;52.626;-8.668;2023-06-14T20:47:24;101835.38;;;17.98;100.00
64352;BME280;50680;52.626;-8.668;2023-06-14T20:49:51;101831.34;;;17.92;100.00
64352;BME280;50680;52.626;-8.668;2023-06-14T20:52:18;101843.34;;;17.85;100.00
64352;BME280;50680;52.626;-8.668;2023-06-14T20:54:45;101848.25;;;17.91;100.00
64352;BME280;50680;52.626;-8.668;2023-06-14T20:57:12;101833.41;;;17.76;100.00
64352;BME280;50680;52.626;-8.668;2023-06-14T20:59:44;101840.16;;;17.80;100.00
64352;BME280;50680;52.626;-8.668;2023-06-14T21:02:11;101849.47;;;17.85;100.00
64352;BME280;50680;52.626;-8.668;2023-06-14T21:04:45;101838.91;;;17.73;100.00
64352;BME280;50680;52.626;-8.668;2023-06-14T21:07:12;101849.53;;;17.73;100.00
64352;BME280;50680;52.626;-8.668;2023-06-14T21:09:39;101853.78;;;17.62;100.00
64352;BME280;50680;52.626;-8.668;2023-06-14T21:12:07;101853.47;;;17.67;100.00
64352;BME280;50680;52.626;-8.668;2023-06-14T21:14:35;101834.84;;;17.43;100.00
64352;BME280;50680;52.626;-8.668;2023-06-14T21:17:02;101835.06;;;17.40;100.00
64352;BME280;50680;52.626;-8.668;2023-06-14T21:19:32;101842.28;;;17.38;100.00
64352;BME280;50680;52.626;-8.668;2023-06-14T21:21:59;101859.34;;;17.46;100.00
64352;BME280;50680;52.626;-8.668;2023-06-14T21:24:26;101860.09;;;17.36;100.00
64352;BME280;50680;52.626;-8.668;2023-06-14T21:26:53;101848.97;;;17.31;100.00
64352;BME280;50680;52.626;-8.668;2023-06-14T21:29:20;101863.16;;;17.29;100.00
64352;BME280;50680;52.626;-8.668;2023-06-14T21:31:47;101854.34;;;17.16;100.00
64352;BME280;50680;52.626;-8.668;2023-06-14T21:34:14;101856.16;;;17.16;100.00
64352;BME280;50680;52.626;-8.668;2023-06-14T21:36:41;101867.63;;;17.16;100.00
64352;BME280;50680;52.626;-8.668;2023-06-14T21:39:08;101867.72;;;17.15;100.00
64352;BME280;50680;52.626;-8.668;2023-06-14T21:41:35;101847.91;;;16.95;100.00
64352;BME280;50680;52.626;-8.668;2023-06-14T21:44:05;101848.75;;;16.95;100.00
64352;BME280;50680;52.626;-8.668;2023-06-14T21:46:32;101860.72;;;16.88;100.00
64352;BME280;50680;52.626;-8.668;2023-06-14T21:48:59;101864.97;;;16.90;100.00
64352;BME280;50680;52.626;-8.668;2023-06-14T21:51:26;101871.41;;;16.86;100.00
64352;BME280;50680;52.626;-8.668;2023-06-14T21:53:54;101858.97;;;16.74;100.00
64352;BME280;50680;52.626;-8.668;2023-06-14T21:56:21;101863.28;;;16.62;100.00
64352;BME280;50680;52.626;-8.668;2023-06-14T21:58:48;101863.81;;;16.67;100.00
64352;BME280;50680;52.626;-8.668;2023-06-14T22:01:15;101858.63;;;16.66;100.00
64352;BME280;50680;52.626;-8.668;2023-06-14T22:03:42;101882.00;;;16.86;100.00
64352;BME280;50680;52.626;-8.668;2023-06-14T22:06:09;101872.25;;;16.87;100.00
64352;BME280;50680;52.626;-8.668;2023-06-14T22:08:36;101890.94;;;16.98;100.00
64352;BME280;50680;52.626;-8.668;2023-06-14T22:11:03;101883.09;;;16.97;100.00
64352;BME280;50680;52.626;-8.668;2023-06-14T22:13:37;101890.94;;;17.11;100.00
64352;BME280;50680;52.626;-8.668;2023-06-14T22:16:07;101892.34;;;17.17;100.00
64352;BME280;50680;52.626;-8.668;2023-06-14T22:18:35;101887.47;;;17.23;100.00
64352;BME280;50680;52.626;-8.668;2023-06-14T22:21:02;101899.97;;;17.34;100.00
64352;BME280;50680;52.626;-8.668;2023-06-14T22:23:29;101894.56;;;17.36;100.00
64352;BME280;50680;52.626;-8.668;2023-06-14T22:26:06;101896.03;;;17.40;100.00
64352;BME280;50680;52.626;-8.668;2023-06-14T22:28:34;101902.81;;;17.44;100.00
64352;BME280;50680;52.626;-8.668;2023-06-14T22:31:09;101881.41;;;17.34;100.00
64352;BME280;50680;52.626;-8.668;2023-06-14T22:33:37;101898.59;;;17.41;100.00
64352;BME280;50680;52.626;-8.668;2023-06-14T22:36:12;101901.34;;;17.40;100.00
64352;BME280;50680;52.626;-8.668;2023-06-14T22:38:43;101893.06;;;17.32;100.00
64352;BME280;50680;52.626;-8.668;2023-06-14T22:41:12;101893.38;;;17.40;100.00
64352;BME280;50680;52.626;-8.668;2023-06-14T22:43:40;101904.41;;;17.46;100.00
64352;BME280;50680;52.626;-8.668;2023-06-14T22:46:09;101902.81;;;17.44;100.00
64352;BME280;50680;52.626;-8.668;2023-06-14T22:48:46;101890.94;;;17.37;100.00
64352;BME280;50680;52.626;-8.668;2023-06-14T22:51:17;101905.91;;;17.38;100.00
64352;BME280;50680;52.626;-8.668;2023-06-14T22:53:44;101895.81;;;17.30;100.00
64352;BME280;50680;52.626;-8.668;2023-06-14T22:56:13;101883.63;;;17.27;100.00
64352;BME280;50680;52.626;-8.668;2023-06-14T22:58:40;101901.88;;;17.32;100.00
64352;BME280;50680;52.626;-8.668;2023-06-14T23:01:12;101903.66;;;17.32;100.00
64352;BME280;50680;52.626;-8.668;2023-06-14T23:03:48;101901.34;;;17.27;100.00
64352;BME280;50680;52.626;-8.668;2023-06-14T23:06:16;101899.75;;;17.24;100.00
64352;BME280;50680;52.626;-8.668;2023-06-14T23:08:52;101889.34;;;17.21;100.00
64352;BME280;50680;52.626;-8.668;2023-06-14T23:11:22;101893.16;;;17.30;100.00
64352;BME280;50680;52.626;-8.668;2023-06-14T23:13:49;101891.25;;;17.19;100.00
64352;BME280;50680;52.626;-8.668;2023-06-14T23:16:22;101889.03;;;17.26;100.00
64352;BME280;50680;52.626;-8.668;2023-06-14T23:18:50;101897.13;;;17.37;100.00
64352;BME280;50680;52.626;-8.668;2023-06-14T23:21:18;101892.66;;;17.38;100.00
64352;BME280;50680;52.626;-8.668;2023-06-14T23:23:46;101872.72;;;17.32;100.00
64352;BME280;50680;52.626;-8.668;2023-06-14T23:26:17;101896.47;;;17.46;100.00
64352;BME280;50680;52.626;-8.668;2023-06-14T23:28:44;101889.97;;;17.51;100.00
64352;BME280;50680;52.626;-8.668;2023-06-14T23:31:14;101888.41;;;17.48;100.00
64352;BME280;50680;52.626;-8.668;2023-06-14T23:33:41;101881.38;;;17.47;100.00
64352;BME280;50680;52.626;-8.668;2023-06-14T23:36:08;101874.28;;;17.47;100.00
64352;BME280;50680;52.626;-8.668;2023-06-14T23:38:35;101894.75;;;17.58;100.00